Time;durP1;ratioP1;P1;durP2;ratioP2;P2;SDS_P1;SDS_P2;PMS_P1;PMS_P2;Temp;Humidity;BMP_temperature;BMP_pressure;BME280_temperature;BME280_humidity;BME280_pressure;Samples;Min_cycle;Max_cycle;Signal;HPM_P1;HPM_P2
2023/04/16 00:00:07;;;;;;;11.00;4.47;;;9.90;99.90;;;;;;4167598;28;20124;-70
2023/04/16 00:02:07;;;;;;;11.77;4.43;;;9.80;99.90;;;;;;4161193;28;20484;-67
2023/04/16 00:04:08;;;;;;;15.23;5.13;;;9.90;99.90;;;;;;4155261;28;20061;-67
2023/04/16 00:06:10;;;;;;;12.02;5.00;;;9.80;99.90;;;;;;4161937;28;20072;-67
2023/04/16 00:08:10;;;;;;;14.60;4.88;;;9.90;99.90;;;;;;4172708;28;20495;-66
2023/04/16 00:10:13;;;;;;;18.00;5.75;;;9.90;99.90;;;;;;4170884;28;20035;-67
2023/04/16 00:12:13;;;;;;;15.35;5.90;;;9.80;99.90;;;;;;4162928;28;20041;-66
2023/04/16 00:14:14;;;;;;;12.60;4.55;;;9.90;99.90;;;;;;4172303;28;20055;-67
2023/04/16 00:16:15;;;;;;;11.50;4.47;;;9.90;99.90;;;;;;4172176;28;20036;-66
2023/04/16 00:18:34;;;;;;;15.13;5.20;;;9.90;99.90;;;;;;4170461;28;20045;-66
2023/04/16 00:20:35;;;;;;;9.75;4.13;;;9.90;99.90;;;;;;4169326;28;20029;-66
2023/04/16 00:22:35;;;;;;;14.70;5.03;;;9.90;99.90;;;;;;4167160;28;20083;-67
2023/04/16 00:24:36;;;;;;;12.75;5.18;;;9.90;99.90;;;;;;4172511;28;20041;-66
2023/04/16 00:26:36;;;;;;;13.88;4.95;;;10.00;99.90;;;;;;4168842;28;20049;-66
2023/04/16 00:28:37;;;;;;;13.48;4.90;;;9.90;99.90;;;;;;4170191;28;20041;-66
2023/04/16 00:30:38;;;;;;;12.27;4.55;;;9.90;99.90;;;;;;4170323;28;20495;-67
2023/04/16 00:32:39;;;;;;;15.60;5.40;;;9.90;99.90;;;;;;4173491;28;20025;-66
2023/04/16 00:34:39;;;;;;;12.07;5.43;;;9.90;99.90;;;;;;4154220;28;20120;-66
2023/04/16 00:36:40;;;;;;;13.30;5.60;;;9.90;99.90;;;;;;4168880;28;20036;-66
2023/04/16 00:38:40;;;;;;;12.65;5.50;;;9.90;99.90;;;;;;4172703;28;20037;-67
2023/04/16 00:40:41;;;;;;;16.92;5.63;;;10.00;99.90;;;;;;4167712;28;20373;-66
2023/04/16 00:42:42;;;;;;;16.23;6.38;;;10.00;99.90;;;;;;4176514;28;20452;-67
2023/04/16 00:44:42;;;;;;;19.20;7.50;;;9.90;99.90;;;;;;4170158;28;20097;-67
2023/04/16 00:46:44;;;;;;;14.27;6.45;;;9.90;99.90;;;;;;4165139;28;20033;-67
2023/04/16 00:48:45;;;;;;;19.27;6.50;;;9.90;99.90;;;;;;4173282;28;20139;-66
2023/04/16 00:50:45;;;;;;;17.33;6.35;;;9.90;99.90;;;;;;4166409;28;20027;-67
2023/04/16 00:52:47;;;;;;;15.30;6.50;;;9.90;99.90;;;;;;4163899;28;20491;-67
2023/04/16 00:54:48;;;;;;;15.70;5.72;;;9.80;99.90;;;;;;4162947;28;20117;-67
2023/04/16 00:56:49;;;;;;;16.67;7.20;;;9.90;99.90;;;;;;4163757;28;20025;-66
2023/04/16 00:58:50;;;;;;;15.15;6.13;;;9.80;99.90;;;;;;4168145;28;20040;-66
2023/04/16 01:00:51;;;;;;;20.30;7.22;;;9.80;99.90;;;;;;4173026;28;20064;-66
2023/04/16 01:02:53;;;;;;;19.92;6.68;;;9.80;99.90;;;;;;4168568;28;20031;-66
2023/04/16 01:04:54;;;;;;;16.58;7.03;;;9.80;99.90;;;;;;4172446;28;20033;-66
2023/04/16 01:06:55;;;;;;;21.15;7.97;;;9.80;99.90;;;;;;4168838;28;20091;-66
2023/04/16 01:08:55;;;;;;;20.05;7.75;;;9.80;99.90;;;;;;4166764;28;20458;-66
2023/04/16 01:10:56;;;;;;;25.25;7.78;;;9.70;99.90;;;;;;4162836;28;20490;-66
2023/04/16 01:12:56;;;;;;;16.60;7.05;;;9.70;99.90;;;;;;4161643;28;20534;-66
2023/04/16 01:14:57;;;;;;;22.17;9.18;;;9.70;99.90;;;;;;4161835;28;20461;-66
2023/04/16 01:16:57;;;;;;;22.55;8.88;;;9.70;99.90;;;;;;4159021;28;20124;-65
2023/04/16 01:18:58;;;;;;;20.58;8.60;;;9.70;99.90;;;;;;4160881;28;20030;-66
2023/04/16 01:20:59;;;;;;;19.33;7.88;;;9.70;99.90;;;;;;4160435;28;20120;-66
2023/04/16 01:22:59;;;;;;;14.35;6.63;;;9.70;99.90;;;;;;4157564;28;20032;-66
2023/04/16 01:25:00;;;;;;;17.10;7.93;;;9.70;99.90;;;;;;4158752;28;20037;-66
2023/04/16 01:27:01;;;;;;;17.02;7.00;;;9.70;99.90;;;;;;4160479;28;20120;-66
2023/04/16 01:29:01;;;;;;;16.92;7.00;;;9.70;99.90;;;;;;4161124;28;25123;-66
2023/04/16 01:31:02;;;;;;;17.80;7.20;;;9.70;99.90;;;;;;4160990;28;20057;-66
2023/04/16 01:33:03;;;;;;;15.13;7.20;;;9.70;99.90;;;;;;4161792;28;20033;-66
2023/04/16 01:35:04;;;;;;;13.43;5.88;;;9.80;99.90;;;;;;4161561;28;20025;-68
2023/04/16 01:37:04;;;;;;;19.08;7.30;;;9.80;99.90;;;;;;4159804;28;20037;-64
2023/04/16 01:39:05;;;;;;;15.98;6.72;;;9.80;99.90;;;;;;4160246;28;20099;-66
2023/04/16 01:41:06;;;;;;;22.00;8.77;;;9.80;99.90;;;;;;4159871;28;20029;-66
2023/04/16 01:43:06;;;;;;;14.63;7.47;;;9.80;99.90;;;;;;4160902;28;20044;-66
2023/04/16 01:45:07;;;;;;;16.67;7.63;;;9.80;99.90;;;;;;4159539;28;20064;-67
2023/04/16 01:47:08;;;;;;;31.23;9.27;;;9.80;99.90;;;;;;4160177;28;20041;-66
2023/04/16 01:49:09;;;;;;;17.63;8.35;;;9.80;99.90;;;;;;4156115;28;20116;-66
2023/04/16 01:51:09;;;;;;;15.85;7.60;;;9.80;99.90;;;;;;4136327;28;20177;-66
2023/04/16 01:53:10;;;;;;;20.98;8.40;;;9.80;99.90;;;;;;4150705;28;20091;-66
2023/04/16 01:55:11;;;;;;;21.45;8.73;;;9.80;99.90;;;;;;4156067;28;20082;-66
2023/04/16 01:57:11;;;;;;;29.98;10.27;;;9.80;99.90;;;;;;4163772;28;20021;-66
2023/04/16 01:59:12;;;;;;;24.23;9.70;;;9.80;99.90;;;;;;4167584;28;20053;-66
2023/04/16 02:01:13;;;;;;;22.55;8.27;;;9.70;99.90;;;;;;4154132;28;20029;-67
2023/04/16 02:03:16;;;;;;;19.08;8.95;;;9.80;99.90;;;;;;4159014;28;20389;-67
2023/04/16 02:05:16;;;;;;;24.05;9.07;;;9.80;99.90;;;;;;4157904;28;20025;-66
2023/04/16 02:07:17;;;;;;;22.55;7.53;;;9.80;99.90;;;;;;4157423;28;20036;-66
2023/04/16 02:09:18;;;;;;;18.92;8.85;;;9.90;99.90;;;;;;4163472;28;20028;-66
2023/04/16 02:11:18;;;;;;;21.55;9.13;;;9.90;99.90;;;;;;4155700;28;20022;-67
2023/04/16 02:13:19;;;;;;;18.38;8.55;;;9.90;99.90;;;;;;4160456;28;20026;-66
2023/04/16 02:15:19;;;;;;;25.15;9.30;;;9.90;99.90;;;;;;4161604;28;20036;-66
2023/04/16 02:17:20;;;;;;;23.02;9.73;;;9.90;99.90;;;;;;4170750;28;20080;-67
2023/04/16 02:19:20;;;;;;;19.52;8.40;;;9.90;99.90;;;;;;4167248;28;20111;-66
2023/04/16 02:21:21;;;;;;;15.95;8.05;;;9.90;99.90;;;;;;4165795;28;20037;-67
2023/04/16 02:23:22;;;;;;;17.08;8.32;;;9.90;99.90;;;;;;4173369;28;20476;-67
2023/04/16 02:25:23;;;;;;;18.75;7.93;;;10.00;99.90;;;;;;4172559;28;20515;-66
2023/04/16 02:27:23;;;;;;;20.30;8.48;;;10.00;99.90;;;;;;4168612;28;20029;-66
2023/04/16 02:29:24;;;;;;;25.35;9.75;;;10.00;99.90;;;;;;4172689;28;20033;-66
2023/04/16 02:31:25;;;;;;;22.48;8.90;;;10.00;99.90;;;;;;4165468;28;20033;-66
2023/04/16 02:33:25;;;;;;;22.77;9.57;;;10.00;99.90;;;;;;4158244;28;20022;-67
2023/04/16 02:35:26;;;;;;;24.10;9.45;;;10.00;99.90;;;;;;4158872;28;20371;-66
2023/04/16 02:37:27;;;;;;;18.70;8.43;;;10.00;99.90;;;;;;4153114;28;20113;-66
2023/04/16 02:39:27;;;;;;;24.55;9.75;;;10.00;99.90;;;;;;4150216;28;20056;-66
2023/04/16 02:41:28;;;;;;;18.58;8.27;;;10.00;99.90;;;;;;4148337;28;20026;-67
2023/04/16 02:43:28;;;;;;;20.77;8.75;;;10.00;99.90;;;;;;4159629;28;20038;-67
2023/04/16 02:45:30;;;;;;;15.75;7.88;;;10.00;99.90;;;;;;4175592;28;20087;-66
2023/04/16 02:47:31;;;;;;;15.85;7.70;;;10.10;99.90;;;;;;4169394;28;20116;-66
2023/04/16 02:49:31;;;;;;;14.75;7.45;;;10.00;99.90;;;;;;4172817;28;20450;-66
2023/04/16 02:51:32;;;;;;;18.25;9.10;;;10.10;99.90;;;;;;4172550;28;20041;-66
2023/04/16 02:53:33;;;;;;;17.48;8.25;;;10.10;99.90;;;;;;4171239;28;20124;-66
2023/04/16 02:55:33;;;;;;;16.00;8.00;;;10.10;99.90;;;;;;4171603;28;20044;-66
2023/04/16 02:57:34;;;;;;;20.95;9.48;;;10.10;99.90;;;;;;4170649;28;20040;-66
2023/04/16 02:59:35;;;;;;;19.55;9.35;;;10.10;99.90;;;;;;4174500;28;20025;-66
2023/04/16 03:01:35;;;;;;;20.50;10.23;;;10.10;99.90;;;;;;4161365;28;20033;-67
2023/04/16 03:03:36;;;;;;;19.35;8.60;;;10.00;99.90;;;;;;4158345;28;20527;-66
2023/04/16 03:05:37;;;;;;;17.98;7.90;;;10.00;99.90;;;;;;4160094;28;20504;-66
2023/04/16 03:07:39;;;;;;;18.27;8.80;;;10.10;99.90;;;;;;4155995;28;20037;-66
2023/04/16 03:09:40;;;;;;;20.65;8.88;;;10.10;99.90;;;;;;4154533;28;20029;-66
2023/04/16 03:11:40;;;;;;;19.25;8.93;;;10.10;99.90;;;;;;4166638;28;20030;-66
2023/04/16 03:13:41;;;;;;;18.60;8.30;;;10.10;99.90;;;;;;4163168;28;20061;-66
2023/04/16 03:15:49;;;;;;;21.42;9.60;;;10.10;99.90;;;;;;4158823;28;20034;-66
2023/04/16 03:17:50;;;;;;;15.85;8.90;;;10.10;99.90;;;;;;4165525;28;20053;-67
2023/04/16 03:19:50;;;;;;;22.15;10.25;;;10.10;99.90;;;;;;4175563;28;20420;-67
2023/04/16 03:21:51;;;;;;;22.48;9.77;;;10.10;99.90;;;;;;4172424;28;20032;-67
2023/04/16 03:23:52;;;;;;;20.17;8.93;;;10.10;99.90;;;;;;4172876;28;20086;-67
2023/04/16 03:25:53;;;;;;;18.23;9.13;;;10.10;99.90;;;;;;4167398;28;20056;-67
2023/04/16 03:27:53;;;;;;;19.60;9.48;;;10.10;99.90;;;;;;4171495;28;20479;-67
2023/04/16 03:29:54;;;;;;;18.55;9.10;;;10.10;99.90;;;;;;4173497;28;20116;-67
2023/04/16 03:31:54;;;;;;;16.58;8.80;;;10.10;99.90;;;;;;4163679;28;20033;-67
2023/04/16 03:33:55;;;;;;;20.75;9.90;;;10.20;99.90;;;;;;4165652;28;20044;-66
2023/04/16 03:35:57;;;;;;;16.23;7.38;;;10.10;99.90;;;;;;4168466;28;20087;-66
2023/04/16 03:37:57;;;;;;;14.85;7.82;;;10.10;99.90;;;;;;4170747;28;20036;-66
2023/04/16 03:39:58;;;;;;;19.65;9.20;;;10.10;99.90;;;;;;4164889;28;20132;-67
2023/04/16 03:41:58;;;;;;;17.75;8.93;;;10.20;99.90;;;;;;4168071;28;20101;-67
2023/04/16 03:43:59;;;;;;;22.42;9.63;;;10.10;99.90;;;;;;4170030;28;20112;-67
2023/04/16 03:46:00;;;;;;;16.85;9.38;;;10.10;99.90;;;;;;4172450;28;20048;-67
2023/04/16 03:48:00;;;;;;;24.75;10.50;;;10.10;99.90;;;;;;4165399;28;20037;-66
2023/04/16 03:50:01;;;;;;;20.77;9.70;;;10.10;99.90;;;;;;4175324;28;20037;-66
2023/04/16 03:52:01;;;;;;;19.40;9.57;;;10.00;99.90;;;;;;4167640;28;20035;-67
2023/04/16 03:54:02;;;;;;;21.42;10.20;;;10.10;99.90;;;;;;4167517;28;20053;-66
2023/04/16 03:56:03;;;;;;;25.77;10.18;;;10.10;99.90;;;;;;4167369;28;20416;-66
2023/04/16 03:58:03;;;;;;;22.85;10.27;;;10.00;99.90;;;;;;4168287;28;20120;-66
2023/04/16 04:00:05;;;;;;;21.38;9.95;;;10.00;99.90;;;;;;4173336;28;20037;-67
2023/04/16 04:02:05;;;;;;;21.00;10.68;;;10.00;99.90;;;;;;4168919;28;20038;-67
2023/04/16 04:04:06;;;;;;;19.45;9.55;;;10.00;99.90;;;;;;4171723;28;20102;-66
2023/04/16 04:06:07;;;;;;;20.83;10.07;;;9.90;99.90;;;;;;4174601;28;20025;-66
2023/04/16 04:08:08;;;;;;;20.90;9.75;;;9.90;99.90;;;;;;4169872;28;20091;-66
2023/04/16 04:10:09;;;;;;;21.35;10.57;;;9.90;99.90;;;;;;4161914;28;20025;-68
2023/04/16 04:12:09;;;;;;;22.17;10.27;;;9.90;99.90;;;;;;4171995;28;20053;-66
2023/04/16 04:14:10;;;;;;;19.50;9.18;;;9.90;99.90;;;;;;4166906;28;20041;-66
2023/04/16 04:16:11;;;;;;;21.02;10.07;;;9.90;99.90;;;;;;4170517;28;20366;-66
2023/04/16 04:18:11;;;;;;;21.92;10.10;;;9.90;99.90;;;;;;4168410;28;20033;-66
2023/04/16 04:20:12;;;;;;;21.80;10.00;;;9.90;99.90;;;;;;4172480;28;20056;-67
2023/04/16 04:22:12;;;;;;;18.75;9.13;;;9.90;99.90;;;;;;4169048;28;20111;-66
2023/04/16 04:24:13;;;;;;;22.30;10.05;;;9.90;99.90;;;;;;4174651;28;20037;-66
2023/04/16 04:26:14;;;;;;;20.13;10.00;;;10.00;99.90;;;;;;4168765;28;20116;-67
2023/04/16 04:28:14;;;;;;;22.52;10.30;;;9.90;99.90;;;;;;4172775;28;20037;-66
2023/04/16 04:30:15;;;;;;;19.95;10.02;;;9.90;99.90;;;;;;4170969;28;20496;-66
2023/04/16 04:32:15;;;;;;;28.08;12.27;;;9.90;99.90;;;;;;4171348;28;20547;-65
2023/04/16 04:34:17;;;;;;;25.85;12.18;;;9.90;99.90;;;;;;4177005;28;20037;-66
2023/04/16 04:36:18;;;;;;;18.77;10.50;;;9.90;99.90;;;;;;4163677;28;20034;-66
2023/04/16 04:38:20;;;;;;;20.83;10.48;;;9.90;99.90;;;;;;4168413;28;20036;-66
2023/04/16 04:40:21;;;;;;;24.98;11.07;;;9.90;99.90;;;;;;4164768;28;20029;-66
2023/04/16 04:42:22;;;;;;;25.30;11.48;;;9.90;99.90;;;;;;4166017;28;20040;-66
2023/04/16 04:44:22;;;;;;;18.67;9.95;;;9.90;99.90;;;;;;4166357;28;20033;-66
2023/04/16 04:46:23;;;;;;;20.13;10.40;;;9.90;99.90;;;;;;4167938;28;20034;-67
2023/04/16 04:48:25;;;;;;;20.58;10.40;;;10.00;99.90;;;;;;4168141;28;20040;-66
2023/04/16 04:50:26;;;;;;;25.15;12.38;;;10.00;99.90;;;;;;4166485;28;20041;-66
2023/04/16 04:52:26;;;;;;;26.13;12.05;;;10.00;99.90;;;;;;4171021;28;20395;-67
2023/04/16 04:54:28;;;;;;;20.00;10.45;;;9.90;99.90;;;;;;4163786;28;20029;-66
2023/04/16 04:56:28;;;;;;;24.15;11.13;;;10.00;99.90;;;;;;4169330;28;20029;-66
2023/04/16 04:58:29;;;;;;;21.65;10.40;;;9.90;99.90;;;;;;4170533;28;20086;-66
2023/04/16 05:00:30;;;;;;;24.27;12.13;;;10.00;99.90;;;;;;4165868;28;20044;-66
2023/04/16 05:02:30;;;;;;;22.15;11.57;;;9.90;99.90;;;;;;4166604;28;20041;-66
2023/04/16 05:04:31;;;;;;;23.42;12.05;;;9.90;99.90;;;;;;4171361;28;20492;-66
2023/04/16 05:06:31;;;;;;;25.23;11.30;;;9.90;99.90;;;;;;4164642;28;20133;-66
2023/04/16 05:08:32;;;;;;;23.98;12.30;;;9.90;99.90;;;;;;4167637;28;20040;-66
2023/04/16 05:10:33;;;;;;;29.05;13.27;;;10.00;99.90;;;;;;4165146;28;20029;-66
2023/04/16 05:12:33;;;;;;;18.52;9.52;;;9.90;99.90;;;;;;4169972;28;20041;-66
2023/04/16 05:14:35;;;;;;;25.17;10.52;;;10.00;99.90;;;;;;4168181;28;20044;-66
2023/04/16 05:16:36;;;;;;;18.38;10.27;;;10.00;99.90;;;;;;4170543;28;20033;-66
2023/04/16 05:18:37;;;;;;;21.45;10.00;;;10.00;99.90;;;;;;4164534;28;20496;-66
2023/04/16 05:20:37;;;;;;;19.85;10.25;;;10.00;99.90;;;;;;4167157;28;20053;-66
2023/04/16 05:22:38;;;;;;;23.48;11.35;;;10.10;99.90;;;;;;4167116;28;20400;-66
2023/04/16 05:24:38;;;;;;;27.58;11.77;;;10.10;99.90;;;;;;4168748;28;20033;-66
2023/04/16 05:26:39;;;;;;;27.33;12.02;;;10.10;99.90;;;;;;4165963;28;20044;-66
2023/04/16 05:28:39;;;;;;;22.58;11.32;;;10.10;99.90;;;;;;4167892;28;20029;-66
2023/04/16 05:30:40;;;;;;;25.23;12.05;;;10.10;99.90;;;;;;4169856;28;20036;-66
2023/04/16 05:32:40;;;;;;;21.20;10.75;;;10.10;99.90;;;;;;4174717;28;20139;-66
2023/04/16 05:34:41;;;;;;;24.63;11.68;;;10.10;99.90;;;;;;4165765;28;20033;-66
2023/04/16 05:36:41;;;;;;;22.38;11.02;;;10.10;99.90;;;;;;4170195;28;20041;-66
2023/04/16 05:38:42;;;;;;;22.70;10.73;;;10.20;99.90;;;;;;4166502;28;20484;-66
2023/04/16 05:40:43;;;;;;;24.27;12.43;;;10.20;99.90;;;;;;4167536;28;20468;-66
2023/04/16 05:42:43;;;;;;;21.17;11.40;;;10.20;99.90;;;;;;4169716;28;20098;-66
2023/04/16 05:44:44;;;;;;;20.55;10.43;;;10.20;99.90;;;;;;4164506;28;20029;-66
2023/04/16 05:46:44;;;;;;;25.95;11.98;;;10.20;99.90;;;;;;4160982;28;20087;-66
2023/04/16 05:48:45;;;;;;;21.08;10.65;;;10.20;99.90;;;;;;4164455;28;20463;-66
2023/04/16 05:50:46;;;;;;;25.10;12.43;;;10.20;99.90;;;;;;4166792;28;20037;-66
2023/04/16 05:52:46;;;;;;;23.40;11.05;;;10.20;99.90;;;;;;4162357;28;20481;-66
2023/04/16 05:54:47;;;;;;;21.48;10.85;;;10.20;99.90;;;;;;4167207;28;20052;-66
2023/04/16 05:56:47;;;;;;;24.67;12.00;;;10.20;99.90;;;;;;4163490;28;20095;-66
2023/04/16 05:58:48;;;;;;;27.38;11.90;;;10.30;99.90;;;;;;4165577;28;20041;-66
2023/04/16 06:00:49;;;;;;;22.05;12.38;;;10.30;99.90;;;;;;4149012;28;20030;-66
2023/04/16 06:02:49;;;;;;;26.25;13.52;;;10.30;99.90;;;;;;4160806;28;20025;-67
2023/04/16 06:04:50;;;;;;;28.17;13.13;;;10.30;99.90;;;;;;4166216;28;20485;-67
2023/04/16 06:06:51;;;;;;;22.77;11.23;;;10.20;99.90;;;;;;4167661;28;20088;-67
2023/04/16 06:08:51;;;;;;;21.17;10.88;;;10.30;99.90;;;;;;4166390;28;20057;-66
2023/04/16 06:10:52;;;;;;;28.30;13.32;;;10.30;99.90;;;;;;4150044;28;20389;-66
2023/04/16 06:12:53;;;;;;;25.25;13.70;;;10.30;99.90;;;;;;4154882;28;20037;-66
2023/04/16 06:14:53;;;;;;;24.42;11.65;;;10.30;99.90;;;;;;4164698;28;20037;-67
2023/04/16 06:16:54;;;;;;;23.50;12.27;;;10.30;99.90;;;;;;4153804;28;20080;-66
2023/04/16 06:18:54;;;;;;;25.50;14.30;;;10.30;99.90;;;;;;4158745;28;20041;-66
2023/04/16 06:20:57;;;;;;;22.80;12.02;;;10.30;99.90;;;;;;4164173;28;20049;-65
2023/04/16 06:22:58;;;;;;;;;;;10.30;99.90;;;;;;4162580;28;20029;-66
2023/04/16 06:24:58;;;;;;;31.48;14.88;;;10.30;99.90;;;;;;4165601;28;19966;-66
2023/04/16 06:26:59;;;;;;;33.75;14.90;;;10.30;99.90;;;;;;4153551;28;20041;-66
2023/04/16 06:29:00;;;;;;;23.35;13.35;;;10.30;99.90;;;;;;4163838;28;20080;-67
2023/04/16 06:31:00;;;;;;;30.08;13.77;;;10.30;99.90;;;;;;4166052;28;20044;-67
2023/04/16 06:33:01;;;;;;;32.28;14.93;;;10.30;99.90;;;;;;4165951;28;20038;-66
2023/04/16 06:35:01;;;;;;;33.50;15.15;;;10.30;99.90;;;;;;4169513;28;20049;-66
2023/04/16 06:37:02;;;;;;;30.08;13.80;;;10.30;99.90;;;;;;4165743;28;20041;-66
2023/04/16 06:39:03;;;;;;;29.38;15.30;;;10.20;99.90;;;;;;4166340;28;20049;-66
2023/04/16 06:41:04;;;;;;;28.30;14.20;;;10.30;99.90;;;;;;4164944;28;20047;-65
2023/04/16 06:43:05;;;;;;;26.55;14.15;;;10.30;99.90;;;;;;4167762;28;20080;-65
2023/04/16 06:45:06;;;;;;;31.40;14.32;;;10.30;99.90;;;;;;4172664;28;20033;-69
2023/04/16 06:47:07;;;;;;;24.58;13.23;;;10.30;99.90;;;;;;4167497;28;20040;-65
2023/04/16 06:49:07;;;;;;;24.38;13.48;;;10.40;99.90;;;;;;4172856;28;20508;-66
2023/04/16 06:51:08;;;;;;;28.35;15.27;;;10.40;99.90;;;;;;4164683;28;20481;-66
2023/04/16 06:53:09;;;;;;;32.42;14.68;;;10.40;99.90;;;;;;4165152;28;20113;-66
2023/04/16 06:55:10;;;;;;;30.73;14.70;;;10.40;99.90;;;;;;4165609;28;20049;-68
2023/04/16 06:57:11;;;;;;;27.25;14.63;;;10.40;99.90;;;;;;4164826;28;20116;-66
2023/04/16 06:59:11;;;;;;;24.48;14.20;;;10.40;99.90;;;;;;4165380;28;20087;-66
2023/04/16 07:01:12;;;;;;;26.90;13.23;;;10.40;99.90;;;;;;4163010;28;20106;-66
2023/04/16 07:03:13;;;;;;;30.98;15.65;;;10.50;99.90;;;;;;4171419;28;20037;-66
2023/04/16 07:05:13;;;;;;;32.03;16.33;;;10.50;99.90;;;;;;4167477;28;20033;-66
2023/04/16 07:07:14;;;;;;;26.83;13.63;;;10.50;99.90;;;;;;4167465;28;20025;-67
2023/04/16 07:09:16;;;;;;;30.15;14.00;;;10.50;99.90;;;;;;4169361;28;20100;-65
2023/04/16 07:11:18;;;;;;;29.38;14.10;;;10.50;99.90;;;;;;4175593;28;20032;-66
2023/04/16 07:13:19;;;;;;;27.95;13.98;;;10.50;99.90;;;;;;4172503;28;20043;-65
2023/04/16 07:15:20;;;;;;;26.35;14.10;;;10.50;99.90;;;;;;4173897;28;20052;-65
2023/04/16 07:17:21;;;;;;;25.15;13.52;;;10.60;99.90;;;;;;4169115;28;20418;-65
2023/04/16 07:19:21;;;;;;;22.95;13.30;;;10.60;99.90;;;;;;4172419;28;20120;-65
2023/04/16 07:21:22;;;;;;;28.73;14.55;;;10.60;99.90;;;;;;4167366;28;20163;-65
2023/04/16 07:23:22;;;;;;;26.85;15.13;;;10.60;99.90;;;;;;4170466;28;20037;-68
2023/04/16 07:25:23;;;;;;;23.02;13.15;;;10.60;99.90;;;;;;4166058;28;20037;-66
2023/04/16 07:27:24;;;;;;;23.60;13.82;;;10.60;99.90;;;;;;4170805;28;20033;-65
2023/04/16 07:29:24;;;;;;;32.80;16.08;;;10.60;99.90;;;;;;4175610;28;20033;-66
2023/04/16 07:31:25;;;;;;;32.58;15.68;;;10.60;99.90;;;;;;4168516;28;20388;-65
2023/04/16 07:33:26;;;;;;;29.13;15.75;;;10.70;99.90;;;;;;4167894;28;20033;-65
2023/04/16 07:35:27;;;;;;;27.83;14.40;;;10.70;99.90;;;;;;4166331;28;20614;-65
2023/04/16 07:37:28;;;;;;;27.73;14.20;;;10.70;99.90;;;;;;4171383;28;20025;-66
2023/04/16 07:39:28;;;;;;;23.77;14.00;;;10.70;99.90;;;;;;4171893;28;20042;-65
2023/04/16 07:41:29;;;;;;;30.85;14.55;;;10.80;99.90;;;;;;4168342;28;20459;-65
2023/04/16 07:43:29;;;;;;;26.30;14.93;;;10.80;99.90;;;;;;4173790;28;20029;-66
2023/04/16 07:45:30;;;;;;;26.65;14.57;;;10.80;99.90;;;;;;4174024;28;20533;-65
2023/04/16 07:47:31;;;;;;;25.98;15.07;;;10.90;99.90;;;;;;4170199;28;20504;-66
2023/04/16 07:49:31;;;;;;;28.83;14.82;;;10.90;99.90;;;;;;4171736;28;20034;-66
2023/04/16 07:51:32;;;;;;;30.27;15.43;;;10.90;99.90;;;;;;4166714;28;20022;-66
2023/04/16 07:53:32;;;;;;;27.58;15.52;;;10.90;99.90;;;;;;4170418;28;20178;-66
2023/04/16 07:55:33;;;;;;;24.88;14.02;;;11.00;99.90;;;;;;4172746;28;20028;-65
2023/04/16 07:57:34;;;;;;;29.27;16.77;;;11.00;99.90;;;;;;4173905;28;20488;-65
2023/04/16 07:59:34;;;;;;;34.30;17.92;;;11.00;99.90;;;;;;4165140;28;20075;-65
2023/04/16 08:01:35;;;;;;;32.58;18.27;;;11.00;99.90;;;;;;4165217;28;20476;-65
2023/04/16 08:03:35;;;;;;;26.67;15.60;;;11.00;99.90;;;;;;4170548;28;20029;-65
2023/04/16 08:05:36;;;;;;;27.25;15.55;;;11.10;99.90;;;;;;4172373;28;20021;-66
2023/04/16 08:07:37;;;;;;;27.88;15.15;;;11.10;99.90;;;;;;4175564;28;20453;-66
2023/04/16 08:09:47;;;;;;;28.50;16.23;;;11.10;99.90;;;;;;4163723;28;20060;-66
2023/04/16 08:11:48;;;;;;;29.10;15.68;;;11.10;99.90;;;;;;4167878;28;20496;-66
2023/04/16 08:13:49;;;;;;;25.90;14.70;;;11.10;99.90;;;;;;4173735;28;20032;-65
2023/04/16 08:15:49;;;;;;;30.05;16.80;;;11.10;99.90;;;;;;4167369;28;20045;-65
2023/04/16 08:17:50;;;;;;;29.05;16.13;;;11.10;99.90;;;;;;4172148;28;20018;-65
2023/04/16 08:19:50;;;;;;;34.45;17.27;;;11.10;99.90;;;;;;4170507;28;20033;-66
2023/04/16 08:21:51;;;;;;;26.65;16.10;;;11.10;99.90;;;;;;4167725;28;20546;-66
2023/04/16 08:23:52;;;;;;;25.25;15.23;;;11.10;99.90;;;;;;4164787;28;20425;-67
2023/04/16 08:25:53;;;;;;;27.48;16.15;;;11.10;99.90;;;;;;4168420;28;20030;-67
2023/04/16 08:27:54;;;;;;;27.55;15.77;;;11.10;99.90;;;;;;4167275;28;20485;-67
2023/04/16 08:29:55;;;;;;;30.15;16.92;;;11.10;99.90;;;;;;4168740;28;20091;-66
2023/04/16 08:31:55;;;;;;;29.60;16.92;;;11.10;99.90;;;;;;4171745;28;20041;-66
2023/04/16 08:33:56;;;;;;;29.80;17.08;;;11.10;99.90;;;;;;4167332;28;20040;-66
2023/04/16 08:35:56;;;;;;;24.45;15.77;;;11.10;99.90;;;;;;4164745;28;20033;-66
2023/04/16 08:37:58;;;;;;;36.05;17.73;;;11.10;99.90;;;;;;4165771;28;20108;-66
2023/04/16 08:39:59;;;;;;;29.07;16.57;;;11.20;99.90;;;;;;4167047;28;20045;-66
2023/04/16 08:42:03;;;;;;;34.15;18.95;;;11.20;99.90;;;;;;4165769;28;20574;-66
2023/04/16 08:44:08;;;;;;;31.88;18.67;;;11.20;99.90;;;;;;4170365;28;20037;-66
2023/04/16 08:46:11;;;;;;;30.85;16.20;;;11.20;99.90;;;;;;4172518;28;20033;-66
2023/04/16 08:48:11;;;;;;;30.45;16.20;;;11.20;99.90;;;;;;4170027;28;20033;-66
2023/04/16 08:50:15;;;;;;;27.80;16.08;;;11.20;99.90;;;;;;4170326;28;20076;-66
2023/04/16 08:52:21;;;;;;;33.47;18.17;;;11.30;99.90;;;;;;4165043;28;20384;-66
2023/04/16 08:54:37;;;;;;;29.13;16.58;;;11.30;99.90;;;;;;4167075;28;20040;-65
2023/04/16 08:56:40;;;;;;;28.98;16.65;;;11.30;99.90;;;;;;4167444;28;20111;-66
2023/04/16 08:58:41;;;;;;;26.58;15.23;;;11.40;99.90;;;;;;4166588;28;20507;-66
2023/04/16 09:00:42;;;;;;;27.83;16.27;;;11.40;99.90;;;;;;4162765;28;20030;-66
2023/04/16 09:02:43;;;;;;;32.83;17.90;;;11.50;99.90;;;;;;4172467;28;20061;-66
2023/04/16 09:04:45;;;;;;;36.63;18.60;;;11.50;99.90;;;;;;4165216;28;20416;-66
2023/04/16 09:06:48;;;;;;;36.80;18.85;;;11.50;99.90;;;;;;4164931;28;20040;-66
2023/04/16 09:08:49;;;;;;;32.47;18.02;;;11.50;99.90;;;;;;4167448;28;20037;-66
2023/04/16 09:10:50;;;;;;;28.00;15.85;;;11.60;99.90;;;;;;4162769;28;20164;-66
2023/04/16 09:12:54;;;;;;;31.55;17.13;;;11.60;99.90;;;;;;4167943;28;20036;-66
2023/04/16 09:14:55;;;;;;;33.08;17.70;;;11.60;99.90;;;;;;4163917;28;20903;-66
2023/04/16 09:16:59;;;;;;;29.13;18.03;;;11.70;99.90;;;;;;4166217;28;20575;-66
2023/04/16 09:19:00;;;;;;;34.28;19.27;;;11.70;99.90;;;;;;4167775;28;20045;-66
2023/04/16 09:21:01;;;;;;;35.47;18.50;;;11.70;99.90;;;;;;4162679;28;20565;-66
2023/04/16 09:23:02;;;;;;;33.63;16.63;;;11.70;99.90;;;;;;4168625;28;20119;-66
2023/04/16 09:25:03;;;;;;;39.55;20.65;;;11.70;99.90;;;;;;4165046;28;20486;-70
2023/04/16 09:27:04;;;;;;;36.38;18.10;;;11.70;99.90;;;;;;4168577;28;20109;-66
2023/04/16 09:29:05;;;;;;;32.88;17.20;;;11.80;99.90;;;;;;4167583;28;20067;-66
2023/04/16 09:31:18;;;;;;;33.97;18.67;;;11.80;99.90;;;;;;4164553;28;20489;-64
2023/04/16 09:33:23;;;;;;;28.35;16.10;;;11.90;99.90;;;;;;4169452;28;20041;-65
2023/04/16 09:35:23;;;;;;;36.75;19.58;;;11.90;99.90;;;;;;4170010;28;20028;-68
2023/04/16 09:37:26;;;;;;;37.65;19.10;;;12.10;99.90;;;;;;4169765;28;20029;-66
2023/04/16 09:39:26;;;;;;;35.60;17.27;;;12.10;99.90;;;;;;4169376;28;20049;-66
2023/04/16 09:41:30;;;;;;;38.03;19.35;;;12.20;99.90;;;;;;4171310;28;20048;-66
2023/04/16 09:43:31;;;;;;;31.08;17.70;;;12.20;99.90;;;;;;4167935;28;20037;-66
2023/04/16 09:45:32;;;;;;;32.58;18.13;;;12.20;99.90;;;;;;4169494;28;20064;-66
2023/04/16 09:47:43;;;;;;;30.95;16.85;;;12.20;99.90;;;;;;4169223;28;20439;-66
2023/04/16 09:49:45;;;;;;;34.20;17.55;;;12.20;99.90;;;;;;4167973;28;20042;-66
2023/04/16 09:51:49;;;;;;;32.17;16.88;;;12.30;99.90;;;;;;4165168;28;20041;-66
2023/04/16 09:53:56;;;;;;;29.63;16.80;;;12.30;99.90;;;;;;4167069;28;20045;-66
2023/04/16 09:56:02;;;;;;;30.35;17.23;;;12.30;99.90;;;;;;4164829;28;20071;-66
2023/04/16 09:58:02;;;;;;;33.28;17.73;;;12.40;99.90;;;;;;4163250;28;20108;-65
2023/04/16 10:00:08;;;;;;;29.13;15.80;;;12.40;99.90;;;;;;4168565;28;20319;-66
2023/04/16 10:02:10;;;;;;;27.92;16.35;;;12.40;99.90;;;;;;4165778;28;20083;-65
2023/04/16 10:04:11;;;;;;;28.60;16.90;;;12.60;99.90;;;;;;4170123;28;20496;-66
2023/04/16 10:06:18;;;;;;;27.80;15.50;;;12.70;99.90;;;;;;4168509;28;20029;-66
2023/04/16 10:08:19;;;;;;;29.65;16.60;;;12.80;99.90;;;;;;4170609;28;20037;-66
2023/04/16 10:10:19;;;;;;;30.92;18.80;;;12.90;99.90;;;;;;4169986;28;20387;-66
2023/04/16 10:12:20;;;;;;;25.42;15.02;;;12.90;99.90;;;;;;4172211;28;20037;-66
2023/04/16 10:14:21;;;;;;;25.10;14.50;;;13.10;99.90;;;;;;4174886;28;20431;-66
2023/04/16 10:16:22;;;;;;;31.17;16.35;;;13.10;99.90;;;;;;4167459;28;20048;-65
2023/04/16 10:18:23;;;;;;;29.85;16.27;;;13.20;99.90;;;;;;4167691;28;20056;-66